sensor_id;sensor_type;location;lat;lon;timestamp;pressure;altitude;pressure_sealevel;temperature;humidity
31082;BME280;17737;52.586;13.284;2023-02-01T00:01:19;100614.72;;;3.46;87.00
31082;BME280;17737;52.586;13.284;2023-02-01T00:03:46;100609.78;;;3.42;87.38
31082;BME280;17737;52.586;13.284;2023-02-01T00:06:14;100599.63;;;3.36;87.39
31082;BME280;17737;52.586;13.284;2023-02-01T00:08:42;100613.78;;;3.36;87.49
31082;BME280;17737;52.586;13.284;2023-02-01T00:11:12;100604.59;;;3.40;87.13
31082;BME280;17737;52.586;13.284;2023-02-01T00:13:41;100619.59;;;3.30;87.78
31082;BME280;17737;52.586;13.284;2023-02-01T00:16:11;100622.03;;;3.33;87.52
31082;BME280;17737;52.586;13.284;2023-02-01T00:18:44;100611.06;;;3.47;85.90
31082;BME280;17737;52.586;13.284;2023-02-01T00:21:13;100603.94;;;3.48;85.93
31082;BME280;17737;52.586;13.284;2023-02-01T00:23:43;100603.34;;;3.44;85.94
31082;BME280;17737;52.586;13.284;2023-02-01T00:26:14;100602.84;;;3.50;85.13
31082;BME280;17737;52.586;13.284;2023-02-01T00:28:44;100604.25;;;3.54;84.30
31082;BME280;17737;52.586;13.284;2023-02-01T00:31:12;100592.88;;;3.52;84.64
31082;BME280;17737;52.586;13.284;2023-02-01T00:33:41;100608.63;;;3.55;83.83
31082;BME280;17737;52.586;13.284;2023-02-01T00:36:11;100613.25;;;3.53;83.68
31082;BME280;17737;52.586;13.284;2023-02-01T00:38:39;100614.91;;;3.54;83.62
31082;BME280;17737;52.586;13.284;2023-02-01T00:41:10;100614.19;;;3.52;83.59
31082;BME280;17737;52.586;13.284;2023-02-01T00:43:40;100610.56;;;3.53;83.18
31082;BME280;17737;52.586;13.284;2023-02-01T00:46:09;100616.25;;;3.60;83.41
31082;BME280;17737;52.586;13.284;2023-02-01T00:48:38;100616.03;;;3.52;83.78
31082;BME280;17737;52.586;13.284;2023-02-01T00:51:09;100614.28;;;3.62;83.16
31082;BME280;17737;52.586;13.284;2023-02-01T00:53:40;100611.50;;;3.63;83.35
31082;BME280;17737;52.586;13.284;2023-02-01T00:56:09;100615.66;;;3.56;83.38
31082;BME280;17737;52.586;13.284;2023-02-01T00:58:37;100632.38;;;3.47;83.81
31082;BME280;17737;52.586;13.284;2023-02-01T01:01:07;100629.50;;;3.39;84.53
31082;BME280;17737;52.586;13.284;2023-02-01T01:03:38;100621.66;;;3.38;84.87
31082;BME280;17737;52.586;13.284;2023-02-01T01:06:09;100618.25;;;3.36;84.65
31082;BME280;17737;52.586;13.284;2023-02-01T01:08:41;100618.38;;;3.34;85.01
31082;BME280;17737;52.586;13.284;2023-02-01T01:11:12;100622.72;;;3.35;84.87
31082;BME280;17737;52.586;13.284;2023-02-01T01:13:41;100613.91;;;3.35;84.85
31082;BME280;17737;52.586;13.284;2023-02-01T01:16:10;100623.59;;;3.36;84.46
31082;BME280;17737;52.586;13.284;2023-02-01T01:18:39;100615.84;;;3.33;84.89
31082;BME280;17737;52.586;13.284;2023-02-01T01:21:08;100612.06;;;3.35;84.33
31082;BME280;17737;52.586;13.284;2023-02-01T01:23:40;100605.78;;;3.36;84.27
31082;BME280;17737;52.586;13.284;2023-02-01T01:26:20;100611.59;;;3.41;83.90
31082;BME280;17737;52.586;13.284;2023-02-01T01:28:50;100597.28;;;3.42;83.63
31082;BME280;17737;52.586;13.284;2023-02-01T01:31:19;100594.75;;;3.41;83.84
31082;BME280;17737;52.586;13.284;2023-02-01T01:33:49;100588.94;;;3.47;83.35
31082;BME280;17737;52.586;13.284;2023-02-01T01:36:18;100577.69;;;3.43;83.36
31082;BME280;17737;52.586;13.284;2023-02-01T01:38:48;100586.50;;;3.44;83.16
31082;BME280;17737;52.586;13.284;2023-02-01T01:41:19;100592.69;;;3.44;83.04
31082;BME280;17737;52.586;13.284;2023-02-01T01:43:56;100589.75;;;3.47;82.94
31082;BME280;17737;52.586;13.284;2023-02-01T01:46:28;100580.28;;;3.54;82.13
31082;BME280;17737;52.586;13.284;2023-02-01T01:49:05;100587.34;;;3.55;82.24
31082;BME280;17737;52.586;13.284;2023-02-01T01:51:38;100585.41;;;3.46;83.03
31082;BME280;17737;52.586;13.284;2023-02-01T01:54:14;100593.75;;;3.53;82.50
31082;BME280;17737;52.586;13.284;2023-02-01T01:56:49;100582.34;;;3.62;81.96
31082;BME280;17737;52.586;13.284;2023-02-01T01:59:21;100585.72;;;3.64;81.64
31082;BME280;17737;52.586;13.284;2023-02-01T02:01:52;100588.84;;;3.69;81.21
31082;BME280;17737;52.586;13.284;2023-02-01T02:04:20;100596.38;;;3.64;81.25
31082;BME280;17737;52.586;13.284;2023-02-01T02:06:52;100597.19;;;3.64;81.66
31082;BME280;17737;52.586;13.284;2023-02-01T02:09:28;100595.78;;;3.60;81.93
31082;BME280;17737;52.586;13.284;2023-02-01T02:11:56;100602.78;;;3.61;81.86
31082;BME280;17737;52.586;13.284;2023-02-01T02:14:24;100606.91;;;3.65;81.65
31082;BME280;17737;52.586;13.284;2023-02-01T02:17:07;100597.91;;;3.66;81.20
31082;BME280;17737;52.586;13.284;2023-02-01T02:20:28;100603.84;;;3.70;81.46
31082;BME280;17737;52.586;13.284;2023-02-01T02:27:00;100587.97;;;3.68;81.08
31082;BME280;17737;52.586;13.284;2023-02-01T02:30:18;100583.88;;;3.64;81.68
31082;BME280;17737;52.586;13.284;2023-02-01T02:36:24;100585.72;;;3.64;81.78
31082;BME280;17737;52.586;13.284;2023-02-01T02:39:05;100583.13;;;3.74;81.22
31082;BME280;17737;52.586;13.284;2023-02-01T02:41:45;100578.25;;;3.79;80.79
31082;BME280;17737;52.586;13.284;2023-02-01T02:44:45;100566.13;;;3.75;81.22
31082;BME280;17737;52.586;13.284;2023-02-01T02:47:41;100574.13;;;3.75;80.84
31082;BME280;17737;52.586;13.284;2023-02-01T02:50:22;100572.84;;;3.69;81.18
31082;BME280;17737;52.586;13.284;2023-02-01T02:53:14;100577.53;;;3.77;80.62
31082;BME280;17737;52.586;13.284;2023-02-01T02:56:03;100582.63;;;3.80;80.53
31082;BME280;17737;52.586;13.284;2023-02-01T02:58:52;100570.38;;;3.77;80.58
31082;BME280;17737;52.586;13.284;2023-02-01T03:01:40;100571.47;;;3.75;80.63
31082;BME280;17737;52.586;13.284;2023-02-01T03:04:27;100569.94;;;3.72;80.60
31082;BME280;17737;52.586;13.284;2023-02-01T03:06:57;100568.34;;;3.69;80.94
31082;BME280;17737;52.586;13.284;2023-02-01T03:09:30;100563.41;;;3.65;81.52
31082;BME280;17737;52.586;13.284;2023-02-01T03:12:04;100554.47;;;3.66;81.63
31082;BME280;17737;52.586;13.284;2023-02-01T03:15:05;100555.28;;;3.66;81.24
31082;BME280;17737;52.586;13.284;2023-02-01T03:17:42;100549.97;;;3.66;81.46
31082;BME280;17737;52.586;13.284;2023-02-01T03:20:14;100542.97;;;3.65;81.58
31082;BME280;17737;52.586;13.284;2023-02-01T03:22:49;100535.91;;;3.64;81.33
31082;BME280;17737;52.586;13.284;2023-02-01T03:25:26;100548.75;;;3.71;81.51
31082;BME280;17737;52.586;13.284;2023-02-01T03:27:59;100529.25;;;3.70;80.99
31082;BME280;17737;52.586;13.284;2023-02-01T03:30:32;100532.63;;;3.72;81.52
31082;BME280;17737;52.586;13.284;2023-02-01T03:33:07;100526.16;;;3.75;81.00
31082;BME280;17737;52.586;13.284;2023-02-01T03:35:44;100520.38;;;3.69;80.94
31082;BME280;17737;52.586;13.284;2023-02-01T03:38:23;100518.44;;;3.72;81.01
31082;BME280;17737;52.586;13.284;2023-02-01T03:41:03;100512.97;;;3.73;80.81
31082;BME280;17737;52.586;13.284;2023-02-01T03:43:43;100512.84;;;3.75;80.59
31082;BME280;17737;52.586;13.284;2023-02-01T03:46:24;100505.84;;;3.74;80.74
31082;BME280;17737;52.586;13.284;2023-02-01T03:49:02;100511.91;;;3.76;80.75
31082;BME280;17737;52.586;13.284;2023-02-01T03:51:35;100499.44;;;3.76;80.89
31082;BME280;17737;52.586;13.284;2023-02-01T03:54:10;100508.00;;;3.80;80.48
31082;BME280;17737;52.586;13.284;2023-02-01T03:56:44;100504.34;;;3.81;80.59
31082;BME280;17737;52.586;13.284;2023-02-01T03:59:14;100498.38;;;3.88;80.25
31082;BME280;17737;52.586;13.284;2023-02-01T04:01:42;100507.19;;;3.89;80.54
31082;BME280;17737;52.586;13.284;2023-02-01T04:04:10;100520.31;;;4.01;79.41
31082;BME280;17737;52.586;13.284;2023-02-01T04:06:46;100522.72;;;4.04;79.50
31082;BME280;17737;52.586;13.284;2023-02-01T04:09:16;100503.91;;;4.06;79.43
31082;BME280;17737;52.586;13.284;2023-02-01T04:11:45;100510.81;;;4.08;79.39
31082;BME280;17737;52.586;13.284;2023-02-01T04:14:13;100517.97;;;4.08;79.25
31082;BME280;17737;52.586;13.284;2023-02-01T04:16:41;100520.34;;;4.11;79.47
31082;BME280;17737;52.586;13.284;2023-02-01T04:19:09;100522.66;;;4.15;79.21
31082;BME280;17737;52.586;13.284;2023-02-01T04:21:37;100527.13;;;4.15;79.25
31082;BME280;17737;52.586;13.284;2023-02-01T04:24:06;100515.47;;;4.16;79.27
31082;BME280;17737;52.586;13.284;2023-02-01T04:26:36;100510.69;;;4.10;79.54
31082;BME280;17737;52.586;13.284;2023-02-01T04:29:04;100514.97;;;4.22;78.81
31082;BME280;17737;52.586;13.284;2023-02-01T04:31:32;100504.00;;;4.25;78.83
31082;BME280;17737;52.586;13.284;2023-02-01T04:34:02;100505.81;;;4.24;79.12
31082;BME280;17737;52.586;13.284;2023-02-01T04:36:30;100504.16;;;4.23;79.20
31082;BME280;17737;52.586;13.284;2023-02-01T04:38:58;100506.50;;;4.17;79.62
31082;BME280;17737;52.586;13.284;2023-02-01T04:41:26;100498.81;;;4.23;79.14
31082;BME280;17737;52.586;13.284;2023-02-01T04:43:56;100489.44;;;4.29;79.17
31082;BME280;17737;52.586;13.284;2023-02-01T04:46:24;100493.00;;;4.39;78.53
31082;BME280;17737;52.586;13.284;2023-02-01T04:48:52;100484.56;;;4.34;78.88
31082;BME280;17737;52.586;13.284;2023-02-01T04:51:20;100485.94;;;4.38;78.54
31082;BME280;17737;52.586;13.284;2023-02-01T04:53:49;100482.31;;;4.39;78.63
31082;BME280;17737;52.586;13.284;2023-02-01T04:56:17;100491.91;;;4.51;78.41
31082;BME280;17737;52.586;13.284;2023-02-01T04:58:45;100472.53;;;4.49;77.95
31082;BME280;17737;52.586;13.284;2023-02-01T05:01:14;100480.38;;;4.41;78.66
31082;BME280;17737;52.586;13.284;2023-02-01T05:03:42;100469.84;;;4.49;78.66
31082;BME280;17737;52.586;13.284;2023-02-01T05:06:10;100467.47;;;4.46;78.86
31082;BME280;17737;52.586;13.284;2023-02-01T05:08:38;100461.72;;;4.50;77.89
31082;BME280;17737;52.586;13.284;2023-02-01T05:11:06;100463.81;;;4.47;78.79
31082;BME280;17737;52.586;13.284;2023-02-01T05:13:54;100465.91;;;4.53;77.77
31082;BME280;17737;52.586;13.284;2023-02-01T05:16:22;100459.06;;;4.60;77.60
31082;BME280;17737;52.586;13.284;2023-02-01T05:18:50;100464.38;;;4.60;77.87
31082;BME280;17737;52.586;13.284;2023-02-01T05:21:18;100463.25;;;4.53;77.73
31082;BME280;17737;52.586;13.284;2023-02-01T05:23:47;100456.09;;;4.53;78.73
31082;BME280;17737;52.586;13.284;2023-02-01T05:26:32;100459.34;;;4.57;78.00
31082;BME280;17737;52.586;13.284;2023-02-01T05:29:01;100447.41;;;4.61;77.39
31082;BME280;17737;52.586;13.284;2023-02-01T05:31:30;100443.22;;;4.68;77.02
31082;BME280;17737;52.586;13.284;2023-02-01T05:33:59;100450.78;;;4.63;77.30
31082;BME280;17737;52.586;13.284;2023-02-01T05:36:27;100449.22;;;4.70;76.76
31082;BME280;17737;52.586;13.284;2023-02-01T05:38:55;100442.50;;;4.66;76.96
31082;BME280;17737;52.586;13.284;2023-02-01T05:41:23;100435.22;;;4.68;76.71
31082;BME280;17737;52.586;13.284;2023-02-01T05:43:51;100435.47;;;4.65;77.19
31082;BME280;17737;52.586;13.284;2023-02-01T05:46:20;100440.41;;;4.69;77.10
31082;BME280;17737;52.586;13.284;2023-02-01T05:48:49;100435.88;;;4.70;76.76
31082;BME280;17737;52.586;13.284;2023-02-01T05:51:18;100427.03;;;4.60;77.71
31082;BME280;17737;52.586;13.284;2023-02-01T05:53:46;100436.88;;;4.69;76.87
31082;BME280;17737;52.586;13.284;2023-02-01T05:56:14;100428.47;;;4.64;77.29
31082;BME280;17737;52.586;13.284;2023-02-01T05:58:42;100434.94;;;4.71;77.28
31082;BME280;17737;52.586;13.284;2023-02-01T06:01:09;100419.88;;;4.70;77.11
31082;BME280;17737;52.586;13.284;2023-02-01T06:03:37;100423.97;;;4.74;76.65
31082;BME280;17737;52.586;13.284;2023-02-01T06:06:07;100423.41;;;4.70;76.52
31082;BME280;17737;52.586;13.284;2023-02-01T06:08:35;100422.56;;;4.70;77.09
31082;BME280;17737;52.586;13.284;2023-02-01T06:11:06;100421.88;;;4.68;77.48
31082;BME280;17737;52.586;13.284;2023-02-01T06:13:38;100427.59;;;4.63;77.92
31082;BME280;17737;52.586;13.284;2023-02-01T06:16:07;100413.13;;;4.56;78.16
31082;BME280;17737;52.586;13.284;2023-02-01T06:18:35;100423.94;;;4.55;78.58
31082;BME280;17737;52.586;13.284;2023-02-01T06:21:04;100426.59;;;4.45;79.70
31082;BME280;17737;52.586;13.284;2023-02-01T06:23:34;100421.94;;;4.38;80.31
31082;BME280;17737;52.586;13.284;2023-02-01T06:26:04;100423.22;;;4.34;80.58
31082;BME280;17737;52.586;13.284;2023-02-01T06:28:34;100422.19;;;4.25;81.20
31082;BME280;17737;52.586;13.284;2023-02-01T06:31:03;100414.59;;;4.21;82.18
31082;BME280;17737;52.586;13.284;2023-02-01T06:33:36;100413.06;;;4.18;82.27
31082;BME280;17737;52.586;13.284;2023-02-01T06:36:07;100419.53;;;4.25;82.88
31082;BME280;17737;52.586;13.284;2023-02-01T06:38:39;100411.53;;;4.25;81.48
31082;BME280;17737;52.586;13.284;2023-02-01T06:41:08;100402.25;;;4.20;81.65
31082;BME280;17737;52.586;13.284;2023-02-01T06:43:37;100403.34;;;4.17;82.37
31082;BME280;17737;52.586;13.284;2023-02-01T06:46:07;100394.97;;;4.22;81.13
31082;BME280;17737;52.586;13.284;2023-02-01T06:48:37;100389.91;;;4.19;81.48
31082;BME280;17737;52.586;13.284;2023-02-01T06:51:05;100391.72;;;4.18;81.79
31082;BME280;17737;52.586;13.284;2023-02-01T06:53:34;100391.72;;;4.18;81.36
31082;BME280;17737;52.586;13.284;2023-02-01T06:56:04;100378.97;;;4.22;80.99
31082;BME280;17737;52.586;13.284;2023-02-01T06:58:33;100375.72;;;4.28;80.27
31082;BME280;17737;52.586;13.284;2023-02-01T07:01:04;100377.00;;;4.24;80.61
31082;BME280;17737;52.586;13.284;2023-02-01T07:03:33;100382.50;;;4.32;79.57
31082;BME280;17737;52.586;13.284;2023-02-01T07:06:02;100373.63;;;4.31;79.85
31082;BME280;17737;52.586;13.284;2023-02-01T07:08:32;100367.75;;;4.28;79.84
31082;BME280;17737;52.586;13.284;2023-02-01T07:11:04;100374.78;;;4.29;80.14
31082;BME280;17737;52.586;13.284;2023-02-01T07:13:34;100375.59;;;4.29;80.52
31082;BME280;17737;52.586;13.284;2023-02-01T07:16:04;100364.50;;;4.24;80.83
31082;BME280;17737;52.586;13.284;2023-02-01T07:18:33;100366.75;;;4.19;80.67
31082;BME280;17737;52.586;13.284;2023-02-01T07:21:01;100377.81;;;4.15;81.23
31082;BME280;17737;52.586;13.284;2023-02-01T07:23:29;100374.44;;;4.13;82.96
31082;BME280;17737;52.586;13.284;2023-02-01T07:26:00;100358.59;;;4.21;82.70
31082;BME280;17737;52.586;13.284;2023-02-01T07:28:33;100352.84;;;4.16;83.27
31082;BME280;17737;52.586;13.284;2023-02-01T07:31:03;100350.88;;;4.18;82.19
31082;BME280;17737;52.586;13.284;2023-02-01T07:33:32;100348.78;;;4.21;82.28
31082;BME280;17737;52.586;13.284;2023-02-01T07:36:01;100355.34;;;4.17;82.66
31082;BME280;17737;52.586;13.284;2023-02-01T07:38:30;100349.34;;;4.25;81.84
31082;BME280;17737;52.586;13.284;2023-02-01T07:40:58;100350.44;;;4.13;82.74
31082;BME280;17737;52.586;13.284;2023-02-01T07:43:27;100346.63;;;4.06;84.40
31082;BME280;17737;52.586;13.284;2023-02-01T07:45:57;100352.66;;;3.98;83.92
31082;BME280;17737;52.586;13.284;2023-02-01T07:48:25;100350.94;;;3.88;84.64
31082;BME280;17737;52.586;13.284;2023-02-01T07:50:57;100358.78;;;3.80;86.37
31082;BME280;17737;52.586;13.284;2023-02-01T07:53:26;100357.19;;;3.67;86.77
31082;BME280;17737;52.586;13.284;2023-02-01T07:55:54;100353.75;;;3.56;87.18
31082;BME280;17737;52.586;13.284;2023-02-01T07:58:23;100363.13;;;3.50;87.60
31082;BME280;17737;52.586;13.284;2023-02-01T08:00:52;100359.00;;;3.37;88.15
31082;BME280;17737;52.586;13.284;2023-02-01T08:03:40;100353.03;;;3.24;88.17
31082;BME280;17737;52.586;13.284;2023-02-01T08:06:07;100349.09;;;3.18;89.22
31082;BME280;17737;52.586;13.284;2023-02-01T08:08:36;100363.38;;;3.17;89.71
31082;BME280;17737;52.586;13.284;2023-02-01T08:11:06;100363.22;;;3.19;89.92
31082;BME280;17737;52.586;13.284;2023-02-01T08:13:34;100365.31;;;3.15;90.24
31082;BME280;17737;52.586;13.284;2023-02-01T08:16:05;100361.91;;;3.13;90.83
31082;BME280;17737;52.586;13.284;2023-02-01T08:18:35;100366.44;;;3.13;90.62
31082;BME280;17737;52.586;13.284;2023-02-01T08:21:06;100367.00;;;3.16;90.67
31082;BME280;17737;52.586;13.284;2023-02-01T08:23:36;100362.50;;;3.17;90.92
31082;BME280;17737;52.586;13.284;2023-02-01T08:26:07;100370.63;;;3.15;91.12
31082;BME280;17737;52.586;13.284;2023-02-01T08:28:36;100364.34;;;3.16;91.38
31082;BME280;17737;52.586;13.284;2023-02-01T08:31:06;100368.38;;;3.11;91.45
31082;BME280;17737;52.586;13.284;2023-02-01T08:33:35;100380.44;;;3.15;91.67
31082;BME280;17737;52.586;13.284;2023-02-01T08:36:06;100389.13;;;3.17;91.86
31082;BME280;17737;52.586;13.284;2023-02-01T08:38:37;100384.66;;;3.17;91.72
31082;BME280;17737;52.586;13.284;2023-02-01T08:41:08;100388.53;;;3.13;92.47
31082;BME280;17737;52.586;13.284;2023-02-01T08:43:37;100389.53;;;3.12;92.35
31082;BME280;17737;52.586;13.284;2023-02-01T08:46:06;100385.44;;;3.08;92.17
31082;BME280;17737;52.586;13.284;2023-02-01T08:48:35;100390.16;;;3.05;92.50
31082;BME280;17737;52.586;13.284;2023-02-01T08:51:07;100386.94;;;3.01;92.41
31082;BME280;17737;52.586;13.284;2023-02-01T08:53:36;100376.75;;;3.06;91.74
31082;BME280;17737;52.586;13.284;2023-02-01T08:56:07;100376.75;;;3.06;92.14
31082;BME280;17737;52.586;13.284;2023-02-01T08:58:38;100389.53;;;3.12;92.36
31082;BME280;17737;52.586;13.284;2023-02-01T09:01:08;100385.78;;;3.15;92.20
31082;BME280;17737;52.586;13.284;2023-02-01T09:03:39;100388.03;;;3.19;92.12
31082;BME280;17737;52.586;13.284;2023-02-01T09:06:10;100391.47;;;3.31;91.64
31082;BME280;17737;52.586;13.284;2023-02-01T09:08:42;100376.06;;;3.34;91.25
31082;BME280;17737;52.586;13.284;2023-02-01T09:11:11;100390.97;;;3.37;90.75
31082;BME280;17737;52.586;13.284;2023-02-01T09:13:41;100399.25;;;3.43;90.91
31082;BME280;17737;52.586;13.284;2023-02-01T09:16:09;100401.78;;;3.45;91.08
31082;BME280;17737;52.586;13.284;2023-02-01T09:18:38;100403.91;;;3.51;90.98
31082;BME280;17737;52.586;13.284;2023-02-01T09:21:23;100409.25;;;3.51;91.48
31082;BME280;17737;52.586;13.284;2023-02-01T09:23:51;100407.28;;;3.53;90.53
31082;BME280;17737;52.586;13.284;2023-02-01T09:26:19;100410.09;;;3.51;89.73
31082;BME280;17737;52.586;13.284;2023-02-01T09:28:57;100414.19;;;3.55;90.10
31082;BME280;17737;52.586;13.284;2023-02-01T09:31:25;100423.13;;;3.54;89.90
31082;BME280;17737;52.586;13.284;2023-02-01T09:33:54;100420.78;;;3.61;89.86
31082;BME280;17737;52.586;13.284;2023-02-01T09:36:23;100431.91;;;3.66;89.08
31082;BME280;17737;52.586;13.284;2023-02-01T09:38:52;100431.91;;;3.66;89.07
31082;BME280;17737;52.586;13.284;2023-02-01T09:41:29;100435.81;;;3.62;88.50
31082;BME280;17737;52.586;13.284;2023-02-01T09:44:16;100439.34;;;3.62;89.05
31082;BME280;17737;52.586;13.284;2023-02-01T09:47:10;100425.28;;;3.60;89.30
31082;BME280;17737;52.586;13.284;2023-02-01T09:49:48;100436.53;;;3.64;88.98
31082;BME280;17737;52.586;13.284;2023-02-01T09:52:29;100437.34;;;3.64;88.73
31082;BME280;17737;52.586;13.284;2023-02-01T09:55:04;100438.47;;;3.62;88.60
31082;BME280;17737;52.586;13.284;2023-02-01T09:57:45;100440.16;;;3.63;88.06
31082;BME280;17737;52.586;13.284;2023-02-01T10:00:21;100450.00;;;3.62;88.52
31082;BME280;17737;52.586;13.284;2023-02-01T10:02:54;100444.41;;;3.45;90.42
31082;BME280;17737;52.586;13.284;2023-02-01T10:05:39;100451.22;;;3.38;90.79
31082;BME280;17737;52.586;13.284;2023-02-01T10:08:33;100461.88;;;3.38;91.04
31082;BME280;17737;52.586;13.284;2023-02-01T10:11:29;100451.66;;;3.43;90.90
31082;BME280;17737;52.586;13.284;2023-02-01T10:14:26;100452.13;;;3.48;90.95
31082;BME280;17737;52.586;13.284;2023-02-01T10:17:13;100444.53;;;3.43;90.89
31082;BME280;17737;52.586;13.284;2023-02-01T10:19:59;100452.44;;;3.54;90.92
31082;BME280;17737;52.586;13.284;2023-02-01T10:22:40;100457.97;;;3.62;90.12
31082;BME280;17737;52.586;13.284;2023-02-01T10:25:36;100459.94;;;3.60;90.77
31082;BME280;17737;52.586;13.284;2023-02-01T10:28:14;100466.41;;;3.67;90.21
31082;BME280;17737;52.586;13.284;2023-02-01T10:30:46;100461.78;;;3.69;89.69
31082;BME280;17737;52.586;13.284;2023-02-01T10:33:17;100450.41;;;3.88;89.92
31082;BME280;17737;52.586;13.284;2023-02-01T10:35:53;100453.75;;;3.90;89.50
31082;BME280;17737;52.586;13.284;2023-02-01T10:38:27;100466.50;;;3.87;88.89
31082;BME280;17737;52.586;13.284;2023-02-01T10:41:01;100464.09;;;3.84;90.16
31082;BME280;17737;52.586;13.284;2023-02-01T10:43:35;100457.31;;;3.70;90.37
31082;BME280;17737;52.586;13.284;2023-02-01T10:46:03;100460.38;;;3.65;90.69
31082;BME280;17737;52.586;13.284;2023-02-01T10:48:31;100462.59;;;3.60;90.20
31082;BME280;17737;52.586;13.284;2023-02-01T10:51:02;100455.09;;;3.54;89.78
31082;BME280;17737;52.586;13.284;2023-02-01T10:53:38;100453.56;;;3.52;90.39
31082;BME280;17737;52.586;13.284;2023-02-01T10:56:22;100454.72;;;3.59;90.67
31082;BME280;17737;52.586;13.284;2023-02-01T10:59:00;100451.94;;;3.60;90.68
31082;BME280;17737;52.586;13.284;2023-02-01T11:01:33;100445.78;;;3.69;90.85
31082;BME280;17737;52.586;13.284;2023-02-01T11:04:05;100437.13;;;3.67;90.30
31082;BME280;17737;52.586;13.284;2023-02-01T11:06:40;100437.00;;;3.79;91.38
31082;BME280;17737;52.586;13.284;2023-02-01T11:09:15;100438.19;;;3.86;90.72
31082;BME280;17737;52.586;13.284;2023-02-01T11:11:57;100440.63;;;3.98;90.45
31082;BME280;17737;52.586;13.284;2023-02-01T11:14:32;100444.13;;;3.99;90.28
31082;BME280;17737;52.586;13.284;2023-02-01T11:17:24;100435.03;;;4.11;90.15
31082;BME280;17737;52.586;13.284;2023-02-01T11:19:59;100427.47;;;4.06;90.02
31082;BME280;17737;52.586;13.284;2023-02-01T11:22:28;100426.53;;;4.17;88.95
31082;BME280;17737;52.586;13.284;2023-02-01T11:24:57;100424.44;;;4.30;89.48
31082;BME280;17737;52.586;13.284;2023-02-01T11:27:32;100424.78;;;4.46;88.65
31082;BME280;17737;52.586;13.284;2023-02-01T11:30:15;100414.13;;;4.46;88.16
31082;BME280;17737;52.586;13.284;2023-02-01T11:32:46;100408.50;;;4.58;87.62
31082;BME280;17737;52.586;13.284;2023-02-01T11:35:19;100412.72;;;4.61;87.84
31082;BME280;17737;52.586;13.284;2023-02-01T11:37:53;100399.94;;;4.55;87.24
31082;BME280;17737;52.586;13.284;2023-02-01T11:40:27;100396.16;;;4.67;86.98
31082;BME280;17737;52.586;13.284;2023-02-01T11:42:59;100392.91;;;4.63;86.61
31082;BME280;17737;52.586;13.284;2023-02-01T11:45:29;100390.94;;;4.65;86.60
31082;BME280;17737;52.586;13.284;2023-02-01T11:48:00;100391.94;;;4.74;86.16
31082;BME280;17737;52.586;13.284;2023-02-01T11:50:34;100386.75;;;4.82;85.62
31082;BME280;17737;52.586;13.284;2023-02-01T11:53:17;100380.97;;;4.96;85.19
31082;BME280;17737;52.586;13.284;2023-02-01T11:55:57;100374.25;;;5.02;84.60
31082;BME280;17737;52.586;13.284;2023-02-01T11:58:58;100369.03;;;5.19;84.10
31082;BME280;17737;52.586;13.284;2023-02-01T12:02:11;100361.34;;;5.53;83.53
31082;BME280;17737;52.586;13.284;2023-02-01T12:08:22;100351.47;;;5.63;81.22
31082;BME280;17737;52.586;13.284;2023-02-01T12:11:28;100348.69;;;5.45;80.41
31082;BME280;17737;52.586;13.284;2023-02-01T12:14:18;100346.63;;;5.39;80.64
31082;BME280;17737;52.586;13.284;2023-02-01T12:17:08;100347.03;;;5.35;81.12
31082;BME280;17737;52.586;13.284;2023-02-01T12:20:04;100335.94;;;5.39;81.17
31082;BME280;17737;52.586;13.284;2023-02-01T12:22:52;100327.53;;;5.34;81.02
31082;BME280;17737;52.586;13.284;2023-02-01T12:25:39;100344.81;;;5.30;80.95
31082;BME280;17737;52.586;13.284;2023-02-01T12:28:36;100324.16;;;5.32;80.74
31082;BME280;17737;52.586;13.284;2023-02-01T12:31:40;100328.53;;;5.24;81.00
31082;BME280;17737;52.586;13.284;2023-02-01T12:34:29;100319.56;;;5.15;81.62
31082;BME280;17737;52.586;13.284;2023-02-01T12:37:13;100315.47;;;5.11;81.61
31082;BME280;17737;52.586;13.284;2023-02-01T12:40:00;100313.91;;;5.18;80.44
31082;BME280;17737;52.586;13.284;2023-02-01T12:42:38;100305.91;;;5.18;80.84
31082;BME280;17737;52.586;13.284;2023-02-01T12:45:14;100300.97;;;5.23;80.08
31082;BME280;17737;52.586;13.284;2023-02-01T12:47:52;100295.78;;;5.22;80.17
31082;BME280;17737;52.586;13.284;2023-02-01T12:50:28;100274.97;;;5.25;79.18
31082;BME280;17737;52.586;13.284;2023-02-01T12:53:09;100285.75;;;5.33;80.16
31082;BME280;17737;52.586;13.284;2023-02-01T12:55:49;100267.44;;;5.38;78.33
31082;BME280;17737;52.586;13.284;2023-02-01T12:58:23;100268.56;;;5.45;78.64
31082;BME280;17737;52.586;13.284;2023-02-01T13:00:59;100265.19;;;5.43;79.42
31082;BME280;17737;52.586;13.284;2023-02-01T13:03:41;100283.00;;;5.52;78.65
31082;BME280;17737;52.586;13.284;2023-02-01T13:06:19;100303.94;;;5.57;78.12
31082;BME280;17737;52.586;13.284;2023-02-01T13:08:55;100341.75;;;5.62;77.63
31082;BME280;17737;52.586;13.284;2023-02-01T13:11:31;100338.94;;;5.63;78.57
31082;BME280;17737;52.586;13.284;2023-02-01T13:14:05;100331.75;;;5.64;79.23
31082;BME280;17737;52.586;13.284;2023-02-01T13:16:52;100341.03;;;5.69;78.39
31082;BME280;17737;52.586;13.284;2023-02-01T13:19:33;100324.53;;;5.74;76.98
31082;BME280;17737;52.586;13.284;2023-02-01T13:22:12;100320.28;;;5.81;76.10
31082;BME280;17737;52.586;13.284;2023-02-01T13:24:49;100332.56;;;5.74;76.70
31082;BME280;17737;52.586;13.284;2023-02-01T13:27:19;100318.91;;;5.77;76.46
31082;BME280;17737;52.586;13.284;2023-02-01T13:29:54;100314.69;;;5.74;76.69
31082;BME280;17737;52.586;13.284;2023-02-01T13:32:43;100297.97;;;5.72;77.35
31082;BME280;17737;52.586;13.284;2023-02-01T13:36:01;100282.47;;;5.76;76.66
31082;BME280;17737;52.586;13.284;2023-02-01T13:42:13;100284.59;;;5.72;77.29